sensor_id;sensor_type;location;lat;lon;timestamp;temperature;humidity
64817;DHT22;69411;45.656;11.740;2023-04-21T00:00:50;12.50;79.40
64817;DHT22;69411;45.656;11.740;2023-04-21T00:03:17;12.50;79.40
64817;DHT22;69411;45.656;11.740;2023-04-21T00:05:45;12.50;79.40
64817;DHT22;69411;45.656;11.740;2023-04-21T00:08:13;12.50;79.40
64817;DHT22;69411;45.656;11.740;2023-04-21T00:10:39;12.50;79.40
64817;DHT22;69411;45.656;11.740;2023-04-21T00:13:05;12.50;79.40
64817;DHT22;69411;45.656;11.740;2023-04-21T00:15:31;12.50;79.30
64817;DHT22;69411;45.656;11.740;2023-04-21T00:17:57;12.50;79.30
64817;DHT22;69411;45.656;11.740;2023-04-21T00:20:24;12.50;79.30
64817;DHT22;69411;45.656;11.740;2023-04-21T00:22:52;12.50;79.00
64817;DHT22;69411;45.656;11.740;2023-04-21T00:25:18;12.50;79.10
64817;DHT22;69411;45.656;11.740;2023-04-21T00:27:44;12.50;79.00
64817;DHT22;69411;45.656;11.740;2023-04-21T00:30:11;12.50;79.30
64817;DHT22;69411;45.656;11.740;2023-04-21T00:32:37;12.50;79.20
64817;DHT22;69411;45.656;11.740;2023-04-21T00:35:03;12.50;79.00
64817;DHT22;69411;45.656;11.740;2023-04-21T00:37:29;12.50;78.90
64817;DHT22;69411;45.656;11.740;2023-04-21T00:39:55;12.50;78.90
64817;DHT22;69411;45.656;11.740;2023-04-21T00:42:21;12.50;78.90
64817;DHT22;69411;45.656;11.740;2023-04-21T00:44:47;12.50;79.00
64817;DHT22;69411;45.656;11.740;2023-04-21T00:47:13;12.50;79.10
64817;DHT22;69411;45.656;11.740;2023-04-21T00:49:39;12.50;79.00
64817;DHT22;69411;45.656;11.740;2023-04-21T00:52:06;12.50;79.10
64817;DHT22;69411;45.656;11.740;2023-04-21T00:54:34;12.50;79.00
64817;DHT22;69411;45.656;11.740;2023-04-21T00:57:01;12.50;78.80
64817;DHT22;69411;45.656;11.740;2023-04-21T00:59:29;12.50;78.80
64817;DHT22;69411;45.656;11.740;2023-04-21T01:01:55;12.50;78.70
64817;DHT22;69411;45.656;11.740;2023-04-21T01:04:21;12.50;78.60
64817;DHT22;69411;45.656;11.740;2023-04-21T01:06:47;12.50;78.60
64817;DHT22;69411;45.656;11.740;2023-04-21T01:09:13;12.50;78.60
64817;DHT22;69411;45.656;11.740;2023-04-21T01:11:39;12.50;78.60
64817;DHT22;69411;45.656;11.740;2023-04-21T01:14:06;12.50;78.50
64817;DHT22;69411;45.656;11.740;2023-04-21T01:16:32;12.60;78.60
64817;DHT22;69411;45.656;11.740;2023-04-21T01:19:01;12.60;78.60
64817;DHT22;69411;45.656;11.740;2023-04-21T01:21:38;12.60;78.50
64817;DHT22;69411;45.656;11.740;2023-04-21T01:24:07;12.50;78.40
64817;DHT22;69411;45.656;11.740;2023-04-21T01:26:34;12.60;78.60
64817;DHT22;69411;45.656;11.740;2023-04-21T01:28:59;12.60;78.50
64817;DHT22;69411;45.656;11.740;2023-04-21T01:31:25;12.50;78.90
64817;DHT22;69411;45.656;11.740;2023-04-21T01:33:52;12.50;78.90
64817;DHT22;69411;45.656;11.740;2023-04-21T01:36:18;12.40;78.80
64817;DHT22;69411;45.656;11.740;2023-04-21T01:38:44;12.40;78.60
64817;DHT22;69411;45.656;11.740;2023-04-21T01:41:10;12.40;78.60
64817;DHT22;69411;45.656;11.740;2023-04-21T01:43:36;12.50;78.60
64817;DHT22;69411;45.656;11.740;2023-04-21T01:46:04;12.50;78.50
64817;DHT22;69411;45.656;11.740;2023-04-21T01:48:30;12.50;78.50
64817;DHT22;69411;45.656;11.740;2023-04-21T01:50:56;12.50;78.50
64817;DHT22;69411;45.656;11.740;2023-04-21T01:53:22;12.50;78.70
64817;DHT22;69411;45.656;11.740;2023-04-21T01:55:48;12.50;78.80
64817;DHT22;69411;45.656;11.740;2023-04-21T01:58:14;12.50;78.80
64817;DHT22;69411;45.656;11.740;2023-04-21T02:00:40;12.50;78.70
64817;DHT22;69411;45.656;11.740;2023-04-21T02:03:06;12.40;78.60
64817;DHT22;69411;45.656;11.740;2023-04-21T02:05:32;12.40;78.60
64817;DHT22;69411;45.656;11.740;2023-04-21T02:07:58;12.50;78.50
64817;DHT22;69411;45.656;11.740;2023-04-21T02:10:24;12.40;78.70
64817;DHT22;69411;45.656;11.740;2023-04-21T02:12:50;12.40;78.80
64817;DHT22;69411;45.656;11.740;2023-04-21T02:15:16;12.40;78.60
64817;DHT22;69411;45.656;11.740;2023-04-21T02:17:42;12.40;78.60
64817;DHT22;69411;45.656;11.740;2023-04-21T02:20:09;12.40;78.50
64817;DHT22;69411;45.656;11.740;2023-04-21T02:22:37;12.40;78.40
64817;DHT22;69411;45.656;11.740;2023-04-21T02:25:04;12.40;78.40
64817;DHT22;69411;45.656;11.740;2023-04-21T02:27:30;12.40;78.30
64817;DHT22;69411;45.656;11.740;2023-04-21T02:29:56;12.50;78.40
64817;DHT22;69411;45.656;11.740;2023-04-21T02:32:22;12.50;78.20
64817;DHT22;69411;45.656;11.740;2023-04-21T02:34:48;12.50;78.20
64817;DHT22;69411;45.656;11.740;2023-04-21T02:37:14;12.50;78.20
64817;DHT22;69411;45.656;11.740;2023-04-21T02:39:40;12.50;78.10
64817;DHT22;69411;45.656;11.740;2023-04-21T02:42:07;12.50;78.00
64817;DHT22;69411;45.656;11.740;2023-04-21T02:44:36;12.50;78.00
64817;DHT22;69411;45.656;11.740;2023-04-21T02:47:02;12.50;77.90
64817;DHT22;69411;45.656;11.740;2023-04-21T02:49:28;12.50;78.00
64817;DHT22;69411;45.656;11.740;2023-04-21T02:51:54;12.50;77.90
64817;DHT22;69411;45.656;11.740;2023-04-21T02:54:21;12.50;77.80
64817;DHT22;69411;45.656;11.740;2023-04-21T02:56:46;12.50;77.80
64817;DHT22;69411;45.656;11.740;2023-04-21T02:59:12;12.40;77.70
64817;DHT22;69411;45.656;11.740;2023-04-21T03:01:41;12.40;77.70
64817;DHT22;69411;45.656;11.740;2023-04-21T03:04:07;12.50;77.60
64817;DHT22;69411;45.656;11.740;2023-04-21T03:06:33;12.50;77.50
64817;DHT22;69411;45.656;11.740;2023-04-21T03:08:59;12.50;77.40
64817;DHT22;69411;45.656;11.740;2023-04-21T03:11:25;12.50;77.40
64817;DHT22;69411;45.656;11.740;2023-04-21T03:13:51;12.50;77.40
64817;DHT22;69411;45.656;11.740;2023-04-21T03:16:17;12.50;77.40
64817;DHT22;69411;45.656;11.740;2023-04-21T03:18:44;12.50;77.30
64817;DHT22;69411;45.656;11.740;2023-04-21T03:21:10;12.50;77.30
64817;DHT22;69411;45.656;11.740;2023-04-21T03:23:36;12.50;77.20
64817;DHT22;69411;45.656;11.740;2023-04-21T03:26:08;12.50;77.30
64817;DHT22;69411;45.656;11.740;2023-04-21T03:28:34;12.50;77.20
64817;DHT22;69411;45.656;11.740;2023-04-21T03:31:00;12.50;77.20
64817;DHT22;69411;45.656;11.740;2023-04-21T03:33:26;12.50;77.20
64817;DHT22;69411;45.656;11.740;2023-04-21T03:35:51;12.50;77.20
64817;DHT22;69411;45.656;11.740;2023-04-21T03:38:17;12.50;77.20
64817;DHT22;69411;45.656;11.740;2023-04-21T03:40:43;12.50;77.10
64817;DHT22;69411;45.656;11.740;2023-04-21T03:43:09;12.50;77.20
64817;DHT22;69411;45.656;11.740;2023-04-21T03:45:35;12.40;77.20
64817;DHT22;69411;45.656;11.740;2023-04-21T03:48:02;12.40;77.20
64817;DHT22;69411;45.656;11.740;2023-04-21T03:50:28;12.40;77.20
64817;DHT22;69411;45.656;11.740;2023-04-21T03:52:54;12.40;77.30
64817;DHT22;69411;45.656;11.740;2023-04-21T03:55:20;12.40;77.30
64817;DHT22;69411;45.656;11.740;2023-04-21T03:57:46;12.40;77.40
64817;DHT22;69411;45.656;11.740;2023-04-21T04:00:12;12.40;77.30
64817;DHT22;69411;45.656;11.740;2023-04-21T04:02:38;12.40;77.50
64817;DHT22;69411;45.656;11.740;2023-04-21T04:05:05;12.40;77.60
64817;DHT22;69411;45.656;11.740;2023-04-21T04:07:32;12.40;77.50
64817;DHT22;69411;45.656;11.740;2023-04-21T04:09:58;12.40;77.50
64817;DHT22;69411;45.656;11.740;2023-04-21T04:12:24;12.40;77.60
64817;DHT22;69411;45.656;11.740;2023-04-21T04:14:50;12.40;77.60
64817;DHT22;69411;45.656;11.740;2023-04-21T04:17:16;12.30;77.60
64817;DHT22;69411;45.656;11.740;2023-04-21T04:19:42;12.40;77.70
64817;DHT22;69411;45.656;11.740;2023-04-21T04:22:09;12.30;77.60
64817;DHT22;69411;45.656;11.740;2023-04-21T04:24:35;12.40;77.60
64817;DHT22;69411;45.656;11.740;2023-04-21T04:27:01;12.30;77.50
64817;DHT22;69411;45.656;11.740;2023-04-21T04:29:28;12.30;77.40
64817;DHT22;69411;45.656;11.740;2023-04-21T04:31:54;12.40;77.60
64817;DHT22;69411;45.656;11.740;2023-04-21T04:34:22;12.30;77.60
64817;DHT22;69411;45.656;11.740;2023-04-21T04:36:49;12.30;77.50
64817;DHT22;69411;45.656;11.740;2023-04-21T04:39:16;12.30;77.60
64817;DHT22;69411;45.656;11.740;2023-04-21T04:41:41;12.20;77.70
64817;DHT22;69411;45.656;11.740;2023-04-21T04:44:07;12.20;77.90
64817;DHT22;69411;45.656;11.740;2023-04-21T04:46:34;12.20;77.70
64817;DHT22;69411;45.656;11.740;2023-04-21T04:49:00;12.20;78.00
64817;DHT22;69411;45.656;11.740;2023-04-21T04:51:26;12.20;78.10
64817;DHT22;69411;45.656;11.740;2023-04-21T04:53:52;12.20;78.10
64817;DHT22;69411;45.656;11.740;2023-04-21T04:56:18;12.20;77.90
64817;DHT22;69411;45.656;11.740;2023-04-21T04:58:45;12.20;77.80
64817;DHT22;69411;45.656;11.740;2023-04-21T05:01:12;12.20;78.00
64817;DHT22;69411;45.656;11.740;2023-04-21T05:03:38;12.20;78.00
64817;DHT22;69411;45.656;11.740;2023-04-21T05:06:05;12.20;78.00
64817;DHT22;69411;45.656;11.740;2023-04-21T05:08:31;12.20;77.90
64817;DHT22;69411;45.656;11.740;2023-04-21T05:10:57;12.30;77.90
64817;DHT22;69411;45.656;11.740;2023-04-21T05:13:23;12.20;77.80
64817;DHT22;69411;45.656;11.740;2023-04-21T05:15:49;12.30;77.80
64817;DHT22;69411;45.656;11.740;2023-04-21T05:18:22;12.30;77.80
64817;DHT22;69411;45.656;11.740;2023-04-21T05:20:48;12.40;77.80
64817;DHT22;69411;45.656;11.740;2023-04-21T05:23:14;12.40;77.70
64817;DHT22;69411;45.656;11.740;2023-04-21T05:25:40;12.40;77.70
64817;DHT22;69411;45.656;11.740;2023-04-21T05:28:06;12.40;77.80
64817;DHT22;69411;45.656;11.740;2023-04-21T05:30:32;12.40;77.70
64817;DHT22;69411;45.656;11.740;2023-04-21T05:32:58;12.40;77.90
64817;DHT22;69411;45.656;11.740;2023-04-21T05:35:24;12.40;77.90
64817;DHT22;69411;45.656;11.740;2023-04-21T05:37:50;12.40;77.80
64817;DHT22;69411;45.656;11.740;2023-04-21T05:40:16;12.40;78.00
64817;DHT22;69411;45.656;11.740;2023-04-21T05:42:42;12.40;77.90
64817;DHT22;69411;45.656;11.740;2023-04-21T05:45:08;12.50;77.90
64817;DHT22;69411;45.656;11.740;2023-04-21T05:47:34;12.50;78.00
64817;DHT22;69411;45.656;11.740;2023-04-21T05:50:00;12.50;78.00
64817;DHT22;69411;45.656;11.740;2023-04-21T05:52:26;12.50;77.90
64817;DHT22;69411;45.656;11.740;2023-04-21T05:54:52;12.50;77.60
64817;DHT22;69411;45.656;11.740;2023-04-21T05:57:18;12.50;77.50
64817;DHT22;69411;45.656;11.740;2023-04-21T05:59:44;12.60;77.50
64817;DHT22;69411;45.656;11.740;2023-04-21T06:02:11;12.60;77.20
64817;DHT22;69411;45.656;11.740;2023-04-21T06:04:37;12.60;77.10
64817;DHT22;69411;45.656;11.740;2023-04-21T06:07:06;12.70;77.20
64817;DHT22;69411;45.656;11.740;2023-04-21T06:09:33;12.80;77.10
64817;DHT22;69411;45.656;11.740;2023-04-21T06:11:59;12.80;76.90
64817;DHT22;69411;45.656;11.740;2023-04-21T06:14:26;12.90;76.80
64817;DHT22;69411;45.656;11.740;2023-04-21T06:16:52;12.90;76.60
64817;DHT22;69411;45.656;11.740;2023-04-21T06:19:18;13.10;76.60
64817;DHT22;69411;45.656;11.740;2023-04-21T06:21:44;13.10;76.40
64817;DHT22;69411;45.656;11.740;2023-04-21T06:24:10;13.30;76.30
64817;DHT22;69411;45.656;11.740;2023-04-21T06:26:36;13.40;75.80
64817;DHT22;69411;45.656;11.740;2023-04-21T06:29:02;13.50;75.20
64817;DHT22;69411;45.656;11.740;2023-04-21T06:31:28;13.60;75.60
64817;DHT22;69411;45.656;11.740;2023-04-21T06:33:54;13.60;75.30
64817;DHT22;69411;45.656;11.740;2023-04-21T06:36:20;13.70;74.70
64817;DHT22;69411;45.656;11.740;2023-04-21T06:38:48;13.70;74.40
64817;DHT22;69411;45.656;11.740;2023-04-21T06:41:14;13.80;74.40
64817;DHT22;69411;45.656;11.740;2023-04-21T06:43:40;13.80;74.20
64817;DHT22;69411;45.656;11.740;2023-04-21T06:46:06;13.90;74.10
64817;DHT22;69411;45.656;11.740;2023-04-21T06:48:32;13.90;74.30
64817;DHT22;69411;45.656;11.740;2023-04-21T06:50:58;14.00;74.20
64817;DHT22;69411;45.656;11.740;2023-04-21T06:53:25;14.00;73.70
64817;DHT22;69411;45.656;11.740;2023-04-21T06:55:51;14.00;73.20
64817;DHT22;69411;45.656;11.740;2023-04-21T06:58:17;14.10;73.30
64817;DHT22;69411;45.656;11.740;2023-04-21T07:00:43;14.10;73.60
64817;DHT22;69411;45.656;11.740;2023-04-21T07:03:09;14.20;73.30
64817;DHT22;69411;45.656;11.740;2023-04-21T07:05:35;14.30;73.00
64817;DHT22;69411;45.656;11.740;2023-04-21T07:08:01;14.40;72.80
64817;DHT22;69411;45.656;11.740;2023-04-21T07:10:28;14.40;73.20
64817;DHT22;69411;45.656;11.740;2023-04-21T07:12:55;14.50;73.20
64817;DHT22;69411;45.656;11.740;2023-04-21T07:15:21;14.70;72.40
64817;DHT22;69411;45.656;11.740;2023-04-21T07:17:47;14.80;72.10
64817;DHT22;69411;45.656;11.740;2023-04-21T07:20:13;14.90;71.80
64817;DHT22;69411;45.656;11.740;2023-04-21T07:22:39;15.00;71.50
64817;DHT22;69411;45.656;11.740;2023-04-21T07:25:05;15.20;71.00
64817;DHT22;69411;45.656;11.740;2023-04-21T07:27:34;15.40;71.50
64817;DHT22;69411;45.656;11.740;2023-04-21T07:30:04;15.60;71.20
64817;DHT22;69411;45.656;11.740;2023-04-21T07:32:30;15.80;71.00
64817;DHT22;69411;45.656;11.740;2023-04-21T07:34:57;15.90;68.50
64817;DHT22;69411;45.656;11.740;2023-04-21T07:37:23;16.00;69.10
64817;DHT22;69411;45.656;11.740;2023-04-21T07:39:49;16.00;69.00
64817;DHT22;69411;45.656;11.740;2023-04-21T07:42:15;16.10;67.00
64817;DHT22;69411;45.656;11.740;2023-04-21T07:44:41;16.10;67.70
64817;DHT22;69411;45.656;11.740;2023-04-21T07:47:07;16.10;67.50
64817;DHT22;69411;45.656;11.740;2023-04-21T07:49:33;16.20;67.20
64817;DHT22;69411;45.656;11.740;2023-04-21T07:51:59;16.20;67.60
64817;DHT22;69411;45.656;11.740;2023-04-21T07:54:25;16.30;68.20
64817;DHT22;69411;45.656;11.740;2023-04-21T07:56:51;16.40;67.40
64817;DHT22;69411;45.656;11.740;2023-04-21T07:59:17;16.50;66.90
64817;DHT22;69411;45.656;11.740;2023-04-21T08:01:43;16.60;66.80
64817;DHT22;69411;45.656;11.740;2023-04-21T08:04:09;16.70;66.80
64817;DHT22;69411;45.656;11.740;2023-04-21T08:06:35;16.80;66.40
64817;DHT22;69411;45.656;11.740;2023-04-21T08:09:01;16.90;66.20
64817;DHT22;69411;45.656;11.740;2023-04-21T08:11:27;17.10;66.10
64817;DHT22;69411;45.656;11.740;2023-04-21T08:13:53;17.20;65.70
64817;DHT22;69411;45.656;11.740;2023-04-21T08:16:19;17.30;65.40
64817;DHT22;69411;45.656;11.740;2023-04-21T08:18:45;17.30;65.20
64817;DHT22;69411;45.656;11.740;2023-04-21T08:21:11;17.40;65.40
64817;DHT22;69411;45.656;11.740;2023-04-21T08:23:38;17.40;63.90
64817;DHT22;69411;45.656;11.740;2023-04-21T08:26:05;17.40;64.40
64817;DHT22;69411;45.656;11.740;2023-04-21T08:28:31;17.30;64.70
64817;DHT22;69411;45.656;11.740;2023-04-21T08:30:57;17.30;63.70
64817;DHT22;69411;45.656;11.740;2023-04-21T08:33:23;17.30;63.90
64817;DHT22;69411;45.656;11.740;2023-04-21T08:35:48;17.20;63.90
64817;DHT22;69411;45.656;11.740;2023-04-21T08:38:14;17.20;64.80
64817;DHT22;69411;45.656;11.740;2023-04-21T08:40:40;17.10;64.60
64817;DHT22;69411;45.656;11.740;2023-04-21T08:43:07;17.10;65.00
64817;DHT22;69411;45.656;11.740;2023-04-21T08:45:34;17.10;65.10
64817;DHT22;69411;45.656;11.740;2023-04-21T08:48:01;17.10;65.40
64817;DHT22;69411;45.656;11.740;2023-04-21T08:50:30;17.10;64.80
64817;DHT22;69411;45.656;11.740;2023-04-21T08:52:57;17.10;65.60
64817;DHT22;69411;45.656;11.740;2023-04-21T08:55:28;17.00;65.10
64817;DHT22;69411;45.656;11.740;2023-04-21T08:57:55;17.00;63.60
64817;DHT22;69411;45.656;11.740;2023-04-21T09:00:21;16.90;63.60
64817;DHT22;69411;45.656;11.740;2023-04-21T09:02:55;16.90;64.10
64817;DHT22;69411;45.656;11.740;2023-04-21T09:05:27;16.90;63.90
64817;DHT22;69411;45.656;11.740;2023-04-21T09:08:12;16.90;63.70
64817;DHT22;69411;45.656;11.740;2023-04-21T09:10:47;16.80;63.50
64817;DHT22;69411;45.656;11.740;2023-04-21T09:13:14;16.80;64.10
64817;DHT22;69411;45.656;11.740;2023-04-21T09:15:42;16.80;63.40
64817;DHT22;69411;45.656;11.740;2023-04-21T09:18:19;16.80;63.80
64817;DHT22;69411;45.656;11.740;2023-04-21T09:20:50;16.70;64.30
64817;DHT22;69411;45.656;11.740;2023-04-21T09:23:16;16.70;64.00
64817;DHT22;69411;45.656;11.740;2023-04-21T09:25:44;16.70;64.40
64817;DHT22;69411;45.656;11.740;2023-04-21T09:28:12;16.60;64.10
64817;DHT22;69411;45.656;11.740;2023-04-21T09:30:41;16.70;65.20
64817;DHT22;69411;45.656;11.740;2023-04-21T09:33:13;16.60;65.10
64817;DHT22;69411;45.656;11.740;2023-04-21T09:35:40;16.70;65.40
64817;DHT22;69411;45.656;11.740;2023-04-21T09:38:10;16.70;64.70
64817;DHT22;69411;45.656;11.740;2023-04-21T09:40:37;16.70;65.50
64817;DHT22;69411;45.656;11.740;2023-04-21T09:43:05;16.70;66.10
64817;DHT22;69411;45.656;11.740;2023-04-21T09:45:32;16.70;66.40
64817;DHT22;69411;45.656;11.740;2023-04-21T09:47:59;16.70;66.50
64817;DHT22;69411;45.656;11.740;2023-04-21T09:50:27;16.80;67.10
64817;DHT22;69411;45.656;11.740;2023-04-21T09:52:55;16.70;66.90
64817;DHT22;69411;45.656;11.740;2023-04-21T09:55:26;16.70;67.00
64817;DHT22;69411;45.656;11.740;2023-04-21T09:57:58;16.80;67.50
64817;DHT22;69411;45.656;11.740;2023-04-21T10:00:26;16.80;67.30
64817;DHT22;69411;45.656;11.740;2023-04-21T10:02:57;16.80;67.60
64817;DHT22;69411;45.656;11.740;2023-04-21T10:05:25;16.80;67.30
64817;DHT22;69411;45.656;11.740;2023-04-21T10:07:51;16.80;67.60
64817;DHT22;69411;45.656;11.740;2023-04-21T10:10:20;16.80;67.20
64817;DHT22;69411;45.656;11.740;2023-04-21T10:12:49;16.80;67.30
64817;DHT22;69411;45.656;11.740;2023-04-21T10:15:37;16.80;67.20
64817;DHT22;69411;45.656;11.740;2023-04-21T10:18:22;16.90;66.90
64817;DHT22;69411;45.656;11.740;2023-04-21T10:20:57;16.90;66.60
64817;DHT22;69411;45.656;11.740;2023-04-21T10:23:35;16.90;66.40
64817;DHT22;69411;45.656;11.740;2023-04-21T10:26:34;16.90;66.80
64817;DHT22;69411;45.656;11.740;2023-04-21T10:29:03;17.00;66.00
64817;DHT22;69411;45.656;11.740;2023-04-21T10:42:27;17.40;63.50
64817;DHT22;69411;45.656;11.740;2023-04-21T10:49:56;17.90;64.90
64817;DHT22;69411;45.656;11.740;2023-04-21T10:52:30;18.00;62.20
64817;DHT22;69411;45.656;11.740;2023-04-21T10:57:23;18.20;63.60
64817;DHT22;69411;45.656;11.740;2023-04-21T10:59:50;18.30;61.40
64817;DHT22;69411;45.656;11.740;2023-04-21T11:02:17;18.40;61.40
64817;DHT22;69411;45.656;11.740;2023-04-21T11:04:44;18.40;61.10
64817;DHT22;69411;45.656;11.740;2023-04-21T11:07:13;18.50;61.90
64817;DHT22;69411;45.656;11.740;2023-04-21T11:09:40;18.60;61.80
64817;DHT22;69411;45.656;11.740;2023-04-21T11:12:15;18.70;60.50
64817;DHT22;69411;45.656;11.740;2023-04-21T11:14:46;18.70;61.90
64817;DHT22;69411;45.656;11.740;2023-04-21T11:17:17;18.80;61.60
64817;DHT22;69411;45.656;11.740;2023-04-21T11:19:47;18.80;62.30
64817;DHT22;69411;45.656;11.740;2023-04-21T11:22:16;18.80;61.30
64817;DHT22;69411;45.656;11.740;2023-04-21T11:24:46;18.90;61.10
64817;DHT22;69411;45.656;11.740;2023-04-21T11:27:13;18.90;60.20
64817;DHT22;69411;45.656;11.740;2023-04-21T11:29:40;19.00;60.30
64817;DHT22;69411;45.656;11.740;2023-04-21T11:32:07;19.00;58.80
64817;DHT22;69411;45.656;11.740;2023-04-21T11:34:36;19.10;59.90
64817;DHT22;69411;45.656;11.740;2023-04-21T11:37:03;19.20;59.40
64817;DHT22;69411;45.656;11.740;2023-04-21T11:39:29;19.20;58.80
64817;DHT22;69411;45.656;11.740;2023-04-21T11:41:55;19.30;58.20
64817;DHT22;69411;45.656;11.740;2023-04-21T11:46:59;19.40;57.10
64817;DHT22;69411;45.656;11.740;2023-04-21T11:49:26;19.40;58.00
64817;DHT22;69411;45.656;11.740;2023-04-21T11:51:55;19.50;57.80
64817;DHT22;69411;45.656;11.740;2023-04-21T11:54:21;19.50;55.90
64817;DHT22;69411;45.656;11.740;2023-04-21T11:56:50;19.60;57.80
64817;DHT22;69411;45.656;11.740;2023-04-21T11:59:18;19.70;58.70
64817;DHT22;69411;45.656;11.740;2023-04-21T12:01:50;19.80;57.60
64817;DHT22;69411;45.656;11.740;2023-04-21T12:04:20;19.90;58.00
64817;DHT22;69411;45.656;11.740;2023-04-21T12:06:58;20.10;57.20
64817;DHT22;69411;45.656;11.740;2023-04-21T12:09:25;20.20;56.40
64817;DHT22;69411;45.656;11.740;2023-04-21T12:11:55;20.40;57.40
64817;DHT22;69411;45.656;11.740;2023-04-21T12:14:27;20.40;56.80
64817;DHT22;69411;45.656;11.740;2023-04-21T12:16:55;20.40;55.30
64817;DHT22;69411;45.656;11.740;2023-04-21T12:19:41;20.50;53.80
64817;DHT22;69411;45.656;11.740;2023-04-21T12:22:11;20.40;53.20
64817;DHT22;69411;45.656;11.740;2023-04-21T12:24:38;20.40;54.30
64817;DHT22;69411;45.656;11.740;2023-04-21T12:27:05;20.40;54.60
64817;DHT22;69411;45.656;11.740;2023-04-21T12:29:31;20.50;56.00
64817;DHT22;69411;45.656;11.740;2023-04-21T12:32:00;20.60;55.10
64817;DHT22;69411;45.656;11.740;2023-04-21T12:34:26;20.70;54.20
64817;DHT22;69411;45.656;11.740;2023-04-21T12:36:52;20.70;53.90
64817;DHT22;69411;45.656;11.740;2023-04-21T12:39:18;20.90;53.50
64817;DHT22;69411;45.656;11.740;2023-04-21T12:41:45;20.90;53.60
64817;DHT22;69411;45.656;11.740;2023-04-21T12:44:13;21.00;53.70
64817;DHT22;69411;45.656;11.740;2023-04-21T12:46:41;20.90;51.60
64817;DHT22;69411;45.656;11.740;2023-04-21T12:49:07;20.90;53.60
64817;DHT22;69411;45.656;11.740;2023-04-21T12:51:34;20.90;53.30
64817;DHT22;69411;45.656;11.740;2023-04-21T12:54:00;20.90;52.40
64817;DHT22;69411;45.656;11.740;2023-04-21T12:56:27;20.90;53.00
64817;DHT22;69411;45.656;11.740;2023-04-21T12:58:53;20.80;51.10
64817;DHT22;69411;45.656;11.740;2023-04-21T13:01:22;20.60;50.90
64817;DHT22;69411;45.656;11.740;2023-04-21T13:03:48;20.60;51.90
64817;DHT22;69411;45.656;11.740;2023-04-21T13:06:14;20.50;52.20
64817;DHT22;69411;45.656;11.740;2023-04-21T13:08:40;20.60;52.00
64817;DHT22;69411;45.656;11.740;2023-04-21T13:11:06;20.60;51.60
64817;DHT22;69411;45.656;11.740;2023-04-21T13:13:33;20.60;51.30
64817;DHT22;69411;45.656;11.740;2023-04-21T13:15:59;20.60;51.90
64817;DHT22;69411;45.656;11.740;2023-04-21T13:18:24;20.70;52.10
64817;DHT22;69411;45.656;11.740;2023-04-21T13:20:50;20.70;49.70
64817;DHT22;69411;45.656;11.740;2023-04-21T13:23:16;20.60;50.40
64817;DHT22;69411;45.656;11.740;2023-04-21T13:25:42;20.60;51.60
64817;DHT22;69411;45.656;11.740;2023-04-21T13:28:10;20.70;51.80
64817;DHT22;69411;45.656;11.740;2023-04-21T13:30:38;20.70;51.70
64817;DHT22;69411;45.656;11.740;2023-04-21T13:33:04;20.80;52.00
64817;DHT22;69411;45.656;11.740;2023-04-21T13:35:30;20.70;50.80
64817;DHT22;69411;45.656;11.740;2023-04-21T13:37:56;20.70;51.10
64817;DHT22;69411;45.656;11.740;2023-04-21T13:40:23;20.70;51.10
64817;DHT22;69411;45.656;11.740;2023-04-21T13:42:52;20.70;51.30
64817;DHT22;69411;45.656;11.740;2023-04-21T13:45:18;20.70;50.60
64817;DHT22;69411;45.656;11.740;2023-04-21T13:47:44;20.80;50.90
64817;DHT22;69411;45.656;11.740;2023-04-21T13:50:11;20.80;50.40
64817;DHT22;69411;45.656;11.740;2023-04-21T13:52:37;20.80;49.80
64817;DHT22;69411;45.656;11.740;2023-04-21T13:55:03;20.90;50.20
64817;DHT22;69411;45.656;11.740;2023-04-21T13:57:29;20.90;50.60
64817;DHT22;69411;45.656;11.740;2023-04-21T13:59:55;20.90;50.00
64817;DHT22;69411;45.656;11.740;2023-04-21T14:02:22;20.90;50.50
64817;DHT22;69411;45.656;11.740;2023-04-21T14:04:51;20.90;49.70
64817;DHT22;69411;45.656;11.740;2023-04-21T14:07:17;20.90;49.20
64817;DHT22;69411;45.656;11.740;2023-04-21T14:09:46;20.90;49.50
64817;DHT22;69411;45.656;11.740;2023-04-21T14:12:14;21.00;49.00
64817;DHT22;69411;45.656;11.740;2023-04-21T14:14:40;21.00;49.00
64817;DHT22;69411;45.656;11.740;2023-04-21T14:17:06;21.00;49.30
64817;DHT22;69411;45.656;11.740;2023-04-21T14:19:33;21.10;49.30
64817;DHT22;69411;45.656;11.740;2023-04-21T14:21:59;21.10;49.00
64817;DHT22;69411;45.656;11.740;2023-04-21T14:24:25;21.20;49.70
64817;DHT22;69411;45.656;11.740;2023-04-21T14:26:53;21.20;49.80
64817;DHT22;69411;45.656;11.740;2023-04-21T14:29:21;21.30;49.10
64817;DHT22;69411;45.656;11.740;2023-04-21T14:31:47;21.30;48.80
64817;DHT22;69411;45.656;11.740;2023-04-21T14:34:13;21.30;48.20
64817;DHT22;69411;45.656;11.740;2023-04-21T14:36:39;21.30;48.30
64817;DHT22;69411;45.656;11.740;2023-04-21T14:39:07;21.30;48.30
64817;DHT22;69411;45.656;11.740;2023-04-21T14:41:34;21.20;46.80
64817;DHT22;69411;45.656;11.740;2023-04-21T14:44:00;21.20;48.00
64817;DHT22;69411;45.656;11.740;2023-04-21T14:46:28;21.20;48.80
64817;DHT22;69411;45.656;11.740;2023-04-21T14:48:54;21.20;48.30
64817;DHT22;69411;45.656;11.740;2023-04-21T14:51:22;21.20;47.70
64817;DHT22;69411;45.656;11.740;2023-04-21T14:53:48;21.20;48.20
64817;DHT22;69411;45.656;11.740;2023-04-21T14:56:14;21.20;48.70
64817;DHT22;69411;45.656;11.740;2023-04-21T14:58:40;21.20;48.70
64817;DHT22;69411;45.656;11.740;2023-04-21T15:01:06;21.20;48.90
64817;DHT22;69411;45.656;11.740;2023-04-21T15:03:33;21.20;49.10
64817;DHT22;69411;45.656;11.740;2023-04-21T15:05:58;21.30;48.80
64817;DHT22;69411;45.656;11.740;2023-04-21T15:08:24;21.20;48.70
64817;DHT22;69411;45.656;11.740;2023-04-21T15:10:50;21.20;48.80
64817;DHT22;69411;45.656;11.740;2023-04-21T15:13:17;21.30;48.50
64817;DHT22;69411;45.656;11.740;2023-04-21T15:15:43;21.30;48.60
64817;DHT22;69411;45.656;11.740;2023-04-21T15:18:09;21.30;48.70
64817;DHT22;69411;45.656;11.740;2023-04-21T15:20:35;21.30;48.80
64817;DHT22;69411;45.656;11.740;2023-04-21T15:23:01;21.30;49.00
64817;DHT22;69411;45.656;11.740;2023-04-21T15:25:27;21.40;48.80
64817;DHT22;69411;45.656;11.740;2023-04-21T15:27:53;21.40;49.00
64817;DHT22;69411;45.656;11.740;2023-04-21T15:30:19;21.40;49.00
64817;DHT22;69411;45.656;11.740;2023-04-21T15:32:45;21.40;48.80
64817;DHT22;69411;45.656;11.740;2023-04-21T15:35:11;21.40;48.70